sensor_id;sensor_type;location;lat;lon;timestamp;pressure;altitude;pressure_sealevel;temperature;humidity
36234;BME280;43467;50.890;5.982;2023-02-16T00:01:41;101089.94;;;9.72;56.76
36234;BME280;43467;50.890;5.982;2023-02-16T00:04:29;101082.75;;;9.75;56.65
36234;BME280;43467;50.890;5.982;2023-02-16T00:06:55;101080.91;;;9.79;56.56
36234;BME280;43467;50.890;5.982;2023-02-16T00:09:22;101088.56;;;9.88;56.61
36234;BME280;43467;50.890;5.982;2023-02-16T00:11:48;101087.69;;;9.88;56.27
36234;BME280;43467;50.890;5.982;2023-02-16T00:14:34;101082.47;;;9.86;56.26
36234;BME280;43467;50.890;5.982;2023-02-16T00:17:00;101080.59;;;9.90;56.16
36234;BME280;43467;50.890;5.982;2023-02-16T00:19:28;101077.97;;;9.90;55.94
36234;BME280;43467;50.890;5.982;2023-02-16T00:21:55;101080.75;;;9.84;56.11
36234;BME280;43467;50.890;5.982;2023-02-16T00:24:22;101071.31;;;9.75;56.32
36234;BME280;43467;50.890;5.982;2023-02-16T00:26:49;101073.09;;;9.74;55.97
36234;BME280;43467;50.890;5.982;2023-02-16T00:29:18;101072.50;;;9.65;56.13
36234;BME280;43467;50.890;5.982;2023-02-16T00:31:44;101072.72;;;9.57;56.11
36234;BME280;43467;50.890;5.982;2023-02-16T00:34:39;101071.25;;;9.46;56.31
36234;BME280;43467;50.890;5.982;2023-02-16T00:37:07;101070.50;;;9.42;56.53
36234;BME280;43467;50.890;5.982;2023-02-16T00:39:34;101053.81;;;9.40;56.31
36234;BME280;43467;50.890;5.982;2023-02-16T00:42:03;101077.63;;;9.40;56.15
36234;BME280;43467;50.890;5.982;2023-02-16T00:44:35;101074.75;;;9.48;56.23
36234;BME280;43467;50.890;5.982;2023-02-16T00:47:31;101074.78;;;9.46;56.25
36234;BME280;43467;50.890;5.982;2023-02-16T00:49:58;101060.88;;;9.40;56.68
36234;BME280;43467;50.890;5.982;2023-02-16T00:52:34;101056.47;;;9.40;56.21
36234;BME280;43467;50.890;5.982;2023-02-16T00:55:03;101041.63;;;9.34;56.11
36234;BME280;43467;50.890;5.982;2023-02-16T00:57:32;101056.56;;;9.37;56.32
36234;BME280;43467;50.890;5.982;2023-02-16T01:00:03;101051.09;;;9.43;56.45
36234;BME280;43467;50.890;5.982;2023-02-16T01:02:30;101048.78;;;9.31;56.51
36234;BME280;43467;50.890;5.982;2023-02-16T01:04:56;101040.75;;;9.34;56.41
36234;BME280;43467;50.890;5.982;2023-02-16T01:07:21;101041.72;;;9.31;56.47
36234;BME280;43467;50.890;5.982;2023-02-16T01:10:06;101031.47;;;9.21;56.68
36234;BME280;43467;50.890;5.982;2023-02-16T01:12:50;101048.78;;;9.31;56.50
36234;BME280;43467;50.890;5.982;2023-02-16T01:15:17;101047.81;;;9.33;56.67
36234;BME280;43467;50.890;5.982;2023-02-16T01:17:46;101036.66;;;9.24;56.77
36234;BME280;43467;50.890;5.982;2023-02-16T01:20:19;101041.97;;;9.22;56.70
36234;BME280;43467;50.890;5.982;2023-02-16T01:22:45;101048.97;;;9.25;57.06
36234;BME280;43467;50.890;5.982;2023-02-16T01:25:12;101039.44;;;9.18;56.78
36234;BME280;43467;50.890;5.982;2023-02-16T01:27:39;101023.94;;;9.06;56.87
36234;BME280;43467;50.890;5.982;2023-02-16T01:30:06;101040.06;;;9.27;57.00
36234;BME280;43467;50.890;5.982;2023-02-16T01:32:32;101037.41;;;9.29;56.97
36234;BME280;43467;50.890;5.982;2023-02-16T01:34:58;101038.09;;;9.36;56.79
36234;BME280;43467;50.890;5.982;2023-02-16T01:37:23;101047.69;;;9.38;57.15
36234;BME280;43467;50.890;5.982;2023-02-16T01:39:49;101034.44;;;9.40;56.79
36234;BME280;43467;50.890;5.982;2023-02-16T01:44:49;101036.66;;;9.24;57.03
36234;BME280;43467;50.890;5.982;2023-02-16T01:47:36;101040.28;;;9.20;57.30
36234;BME280;43467;50.890;5.982;2023-02-16T01:52:42;101042.41;;;9.06;57.70
36234;BME280;43467;50.890;5.982;2023-02-16T01:57:51;101037.56;;;8.91;58.41
36234;BME280;43467;50.890;5.982;2023-02-16T02:06:03;101029.06;;;8.78;58.78
36234;BME280;43467;50.890;5.982;2023-02-16T02:08:57;101026.41;;;8.79;58.74
36234;BME280;43467;50.890;5.982;2023-02-16T02:11:26;101034.28;;;8.81;59.07
36234;BME280;43467;50.890;5.982;2023-02-16T02:16:38;101021.03;;;8.82;59.39
36234;BME280;43467;50.890;5.982;2023-02-16T02:19:04;101017.69;;;8.76;59.72
36234;BME280;43467;50.890;5.982;2023-02-16T02:33:09;101018.75;;;8.69;60.52
36234;BME280;43467;50.890;5.982;2023-02-16T02:41:09;100999.03;;;8.82;60.57
36234;BME280;43467;50.890;5.982;2023-02-16T02:43:53;100968.38;;;8.76;60.55
36234;BME280;43467;50.890;5.982;2023-02-16T02:46:26;100983.06;;;8.88;60.66
36234;BME280;43467;50.890;5.982;2023-02-16T02:48:54;100980.44;;;8.86;60.71
36234;BME280;43467;50.890;5.982;2023-02-16T02:51:19;100974.31;;;8.84;60.90
36234;BME280;43467;50.890;5.982;2023-02-16T02:54:16;100971.63;;;8.88;61.05
36234;BME280;43467;50.890;5.982;2023-02-16T02:57:04;100969.97;;;8.83;60.73
36234;BME280;43467;50.890;5.982;2023-02-16T02:59:56;100964.59;;;8.86;60.94
36234;BME280;43467;50.890;5.982;2023-02-16T03:02:42;100976.06;;;8.85;61.21
36234;BME280;43467;50.890;5.982;2023-02-16T03:05:11;100976.16;;;8.82;61.16
36234;BME280;43467;50.890;5.982;2023-02-16T03:07:41;100969.88;;;8.86;61.27
36234;BME280;43467;50.890;5.982;2023-02-16T03:10:22;100968.78;;;8.94;61.13
36234;BME280;43467;50.890;5.982;2023-02-16T03:13:17;100955.50;;;8.97;61.17
36234;BME280;43467;50.890;5.982;2023-02-16T03:15:46;100951.16;;;8.96;60.77
36234;BME280;43467;50.890;5.982;2023-02-16T03:18:13;100957.16;;;9.01;60.91
36234;BME280;43467;50.890;5.982;2023-02-16T03:20:59;100953.78;;;8.96;60.91
36234;BME280;43467;50.890;5.982;2023-02-16T03:23:44;100947.63;;;8.95;60.75
36234;BME280;43467;50.890;5.982;2023-02-16T03:26:28;100948.41;;;8.99;60.47
36234;BME280;43467;50.890;5.982;2023-02-16T03:29:14;100958.22;;;8.95;60.65
36234;BME280;43467;50.890;5.982;2023-02-16T03:31:45;100968.72;;;8.97;60.56
36234;BME280;43467;50.890;5.982;2023-02-16T03:34:12;100957.56;;;8.87;60.91
36234;BME280;43467;50.890;5.982;2023-02-16T03:36:40;100955.19;;;8.76;61.03
36234;BME280;43467;50.890;5.982;2023-02-16T03:39:07;100956.88;;;8.79;61.15
36234;BME280;43467;50.890;5.982;2023-02-16T03:41:38;100957.69;;;8.81;60.91
36234;BME280;43467;50.890;5.982;2023-02-16T03:44:04;100954.13;;;8.83;60.81
36234;BME280;43467;50.890;5.982;2023-02-16T03:46:29;100931.56;;;8.72;60.82
36234;BME280;43467;50.890;5.982;2023-02-16T03:48:55;100937.53;;;8.78;60.73
36234;BME280;43467;50.890;5.982;2023-02-16T03:51:20;100951.88;;;8.68;61.30
36234;BME280;43467;50.890;5.982;2023-02-16T03:53:46;100937.66;;;8.74;61.05
36234;BME280;43467;50.890;5.982;2023-02-16T03:56:11;100942.25;;;8.67;61.43
36234;BME280;43467;50.890;5.982;2023-02-16T03:58:37;100948.25;;;8.72;61.50
36234;BME280;43467;50.890;5.982;2023-02-16T04:01:02;100950.88;;;8.72;61.67
36234;BME280;43467;50.890;5.982;2023-02-16T04:03:28;100950.88;;;8.72;61.73
36234;BME280;43467;50.890;5.982;2023-02-16T04:05:53;100944.78;;;8.70;61.81
36234;BME280;43467;50.890;5.982;2023-02-16T04:08:20;100948.97;;;8.79;61.50
36234;BME280;43467;50.890;5.982;2023-02-16T04:10:46;100935.78;;;8.77;61.63
36234;BME280;43467;50.890;5.982;2023-02-16T04:13:12;100937.41;;;8.83;61.62
36234;BME280;43467;50.890;5.982;2023-02-16T04:15:38;100939.97;;;8.86;61.49
36234;BME280;43467;50.890;5.982;2023-02-16T04:18:05;100941.91;;;8.79;61.82
36234;BME280;43467;50.890;5.982;2023-02-16T04:20:32;100937.63;;;8.75;62.21
36234;BME280;43467;50.890;5.982;2023-02-16T04:22:58;100945.59;;;8.72;62.36
36234;BME280;43467;50.890;5.982;2023-02-16T04:25:24;100945.53;;;8.75;62.35
36234;BME280;43467;50.890;5.982;2023-02-16T04:27:50;100946.91;;;8.88;61.96
36234;BME280;43467;50.890;5.982;2023-02-16T04:30:19;100948.78;;;8.85;62.07
36234;BME280;43467;50.890;5.982;2023-02-16T04:32:46;100940.41;;;8.69;62.61
36234;BME280;43467;50.890;5.982;2023-02-16T04:35:11;100947.25;;;8.76;62.16
36234;BME280;43467;50.890;5.982;2023-02-16T04:37:37;100939.50;;;8.72;62.07
36234;BME280;43467;50.890;5.982;2023-02-16T04:40:03;100946.34;;;8.77;62.29
36234;BME280;43467;50.890;5.982;2023-02-16T04:42:29;100956.50;;;8.60;63.05
36234;BME280;43467;50.890;5.982;2023-02-16T04:44:54;100958.19;;;8.63;62.93
36234;BME280;43467;50.890;5.982;2023-02-16T04:47:20;100949.41;;;8.62;63.08
36234;BME280;43467;50.890;5.982;2023-02-16T04:49:47;100951.16;;;8.63;63.03
36234;BME280;43467;50.890;5.982;2023-02-16T04:52:12;100959.22;;;8.57;63.13
36234;BME280;43467;50.890;5.982;2023-02-16T04:54:38;100952.06;;;8.62;63.01
36234;BME280;43467;50.890;5.982;2023-02-16T04:57:04;100931.69;;;8.67;62.59
36234;BME280;43467;50.890;5.982;2023-02-16T04:59:30;100954.59;;;8.65;62.89
36234;BME280;43467;50.890;5.982;2023-02-16T05:01:55;100943.28;;;8.60;62.80
36234;BME280;43467;50.890;5.982;2023-02-16T05:04:22;100946.66;;;8.67;62.55
36234;BME280;43467;50.890;5.982;2023-02-16T05:06:48;100943.16;;;8.65;62.95
36234;BME280;43467;50.890;5.982;2023-02-16T05:09:14;100948.19;;;8.75;62.56
36234;BME280;43467;50.890;5.982;2023-02-16T05:11:39;100943.81;;;8.74;62.59
36234;BME280;43467;50.890;5.982;2023-02-16T05:14:33;100938.44;;;8.77;62.46
36234;BME280;43467;50.890;5.982;2023-02-16T05:17:23;100943.63;;;8.80;62.45
36234;BME280;43467;50.890;5.982;2023-02-16T05:19:50;100948.75;;;8.86;62.39
36234;BME280;43467;50.890;5.982;2023-02-16T05:22:16;100942.84;;;8.77;62.55
36234;BME280;43467;50.890;5.982;2023-02-16T05:24:42;100952.53;;;8.76;62.75
36234;BME280;43467;50.890;5.982;2023-02-16T05:27:14;100951.59;;;8.79;62.63
36234;BME280;43467;50.890;5.982;2023-02-16T05:29:40;100951.59;;;8.79;62.57
36234;BME280;43467;50.890;5.982;2023-02-16T05:32:05;100952.38;;;8.82;62.58
36234;BME280;43467;50.890;5.982;2023-02-16T05:34:31;100955.84;;;8.84;62.52
36234;BME280;43467;50.890;5.982;2023-02-16T05:36:56;100931.03;;;8.90;62.57
36234;BME280;43467;50.890;5.982;2023-02-16T05:39:22;100937.94;;;8.96;62.50
36234;BME280;43467;50.890;5.982;2023-02-16T05:41:47;100947.72;;;8.92;62.63
36234;BME280;43467;50.890;5.982;2023-02-16T05:44:14;100941.31;;;9.01;62.16
36234;BME280;43467;50.890;5.982;2023-02-16T05:46:40;100941.50;;;8.95;62.40
36234;BME280;43467;50.890;5.982;2023-02-16T05:49:06;100943.34;;;8.91;62.72
36234;BME280;43467;50.890;5.982;2023-02-16T05:51:32;100943.28;;;8.93;62.47
36234;BME280;43467;50.890;5.982;2023-02-16T05:53:58;100945.09;;;8.92;62.35
36234;BME280;43467;50.890;5.982;2023-02-16T05:56:24;100955.91;;;8.83;63.00
36234;BME280;43467;50.890;5.982;2023-02-16T05:58:49;100960.97;;;8.91;62.90
36234;BME280;43467;50.890;5.982;2023-02-16T06:01:15;100947.00;;;8.85;63.16
36234;BME280;43467;50.890;5.982;2023-02-16T06:03:42;100946.25;;;8.82;63.24
36234;BME280;43467;50.890;5.982;2023-02-16T06:06:08;100943.47;;;8.86;62.97
36234;BME280;43467;50.890;5.982;2023-02-16T06:08:35;100944.91;;;8.98;62.61
36234;BME280;43467;50.890;5.982;2023-02-16T06:11:01;100942.16;;;9.01;62.25
36234;BME280;43467;50.890;5.982;2023-02-16T06:13:27;100946.41;;;9.08;62.33
36234;BME280;43467;50.890;5.982;2023-02-16T06:15:55;100938.25;;;9.16;62.06
36234;BME280;43467;50.890;5.982;2023-02-16T06:18:21;100932.13;;;9.14;62.00
36234;BME280;43467;50.890;5.982;2023-02-16T06:20:47;100928.31;;;9.24;61.95
36234;BME280;43467;50.890;5.982;2023-02-16T06:23:13;100938.66;;;9.31;61.60
36234;BME280;43467;50.890;5.982;2023-02-16T06:25:43;100933.41;;;9.30;61.83
36234;BME280;43467;50.890;5.982;2023-02-16T06:28:09;100931.97;;;9.20;61.91
36234;BME280;43467;50.890;5.982;2023-02-16T06:30:35;100933.06;;;9.13;62.20
36234;BME280;43467;50.890;5.982;2023-02-16T06:33:04;100933.88;;;9.15;62.25
36234;BME280;43467;50.890;5.982;2023-02-16T06:35:30;100932.84;;;9.20;62.14
36234;BME280;43467;50.890;5.982;2023-02-16T06:37:55;100924.13;;;9.17;62.06
36234;BME280;43467;50.890;5.982;2023-02-16T06:40:21;100930.06;;;9.25;62.25
36234;BME280;43467;50.890;5.982;2023-02-16T06:42:46;100931.75;;;9.27;62.11
36234;BME280;43467;50.890;5.982;2023-02-16T06:45:11;100930.00;;;9.26;62.09
36234;BME280;43467;50.890;5.982;2023-02-16T06:47:37;100935.75;;;9.41;61.82
36234;BME280;43467;50.890;5.982;2023-02-16T06:50:05;100939.34;;;9.38;61.95
36234;BME280;43467;50.890;5.982;2023-02-16T06:52:31;100929.38;;;9.48;61.52
36234;BME280;43467;50.890;5.982;2023-02-16T06:54:56;100936.06;;;9.59;61.39
36234;BME280;43467;50.890;5.982;2023-02-16T06:57:21;100932.63;;;9.57;61.43
36234;BME280;43467;50.890;5.982;2023-02-16T06:59:47;100938.56;;;9.64;61.18
36234;BME280;43467;50.890;5.982;2023-02-16T07:02:13;100943.63;;;9.71;60.95
36234;BME280;43467;50.890;5.982;2023-02-16T07:04:38;100939.22;;;9.70;60.91
36234;BME280;43467;50.890;5.982;2023-02-16T07:07:04;100935.06;;;9.63;61.32
36234;BME280;43467;50.890;5.982;2023-02-16T07:09:29;100934.69;;;9.75;61.21
36234;BME280;43467;50.890;5.982;2023-02-16T07:11:54;100932.25;;;9.69;61.33
36234;BME280;43467;50.890;5.982;2023-02-16T07:14:20;100942.75;;;9.71;61.16
36234;BME280;43467;50.890;5.982;2023-02-16T07:16:46;100932.41;;;9.63;61.40
36234;BME280;43467;50.890;5.982;2023-02-16T07:19:11;100933.91;;;9.72;61.23
36234;BME280;43467;50.890;5.982;2023-02-16T07:21:37;100928.63;;;9.72;61.18
36234;BME280;43467;50.890;5.982;2023-02-16T07:24:02;100936.22;;;9.82;61.18
36234;BME280;43467;50.890;5.982;2023-02-16T07:26:28;100939.72;;;9.83;61.21
36234;BME280;43467;50.890;5.982;2023-02-16T07:28:53;100946.16;;;9.74;61.41
36234;BME280;43467;50.890;5.982;2023-02-16T07:31:18;100950.75;;;9.69;61.60
36234;BME280;43467;50.890;5.982;2023-02-16T07:33:44;100946.09;;;9.77;61.49
36234;BME280;43467;50.890;5.982;2023-02-16T07:36:10;100957.38;;;9.82;61.44
36234;BME280;43467;50.890;5.982;2023-02-16T07:38:36;100960.97;;;9.80;61.65
36234;BME280;43467;50.890;5.982;2023-02-16T07:41:02;100965.28;;;9.82;61.83
36234;BME280;43467;50.890;5.982;2023-02-16T07:43:28;100963.38;;;9.88;61.54
36234;BME280;43467;50.890;5.982;2023-02-16T07:45:53;100962.22;;;9.96;61.53
36234;BME280;43467;50.890;5.982;2023-02-16T07:48:19;100964.13;;;9.93;61.86
36234;BME280;43467;50.890;5.982;2023-02-16T07:50:44;100971.94;;;9.96;61.71
36234;BME280;43467;50.890;5.982;2023-02-16T07:53:10;100970.44;;;9.87;62.28
36234;BME280;43467;50.890;5.982;2023-02-16T07:55:39;100976.56;;;9.89;62.35
36234;BME280;43467;50.890;5.982;2023-02-16T07:58:05;100960.81;;;9.86;62.54
36234;BME280;43467;50.890;5.982;2023-02-16T08:00:30;100957.53;;;9.78;62.90
36234;BME280;43467;50.890;5.982;2023-02-16T08:02:56;100967.00;;;9.85;63.11
36234;BME280;43467;50.890;5.982;2023-02-16T08:05:21;100964.50;;;9.80;63.36
36234;BME280;43467;50.890;5.982;2023-02-16T08:07:47;100961.56;;;9.90;63.19
36234;BME280;43467;50.890;5.982;2023-02-16T08:10:12;100966.56;;;9.99;63.22
36234;BME280;43467;50.890;5.982;2023-02-16T08:12:38;100965.22;;;10.13;62.89
36234;BME280;43467;50.890;5.982;2023-02-16T08:15:03;100964.28;;;10.16;63.28
36234;BME280;43467;50.890;5.982;2023-02-16T08:17:29;100964.59;;;10.05;64.18
36234;BME280;43467;50.890;5.982;2023-02-16T08:19:54;100962.72;;;10.09;64.13
36234;BME280;43467;50.890;5.982;2023-02-16T08:22:20;100962.59;;;10.12;64.31
36234;BME280;43467;50.890;5.982;2023-02-16T08:24:45;100939.81;;;10.08;64.25
36234;BME280;43467;50.890;5.982;2023-02-16T08:27:10;100955.66;;;10.09;64.66
36234;BME280;43467;50.890;5.982;2023-02-16T08:29:36;100960.44;;;10.26;64.17
36234;BME280;43467;50.890;5.982;2023-02-16T08:32:02;100962.38;;;10.19;65.05
36234;BME280;43467;50.890;5.982;2023-02-16T08:34:32;100969.38;;;10.22;65.39
36234;BME280;43467;50.890;5.982;2023-02-16T08:36:58;100953.34;;;10.27;65.04
36234;BME280;43467;50.890;5.982;2023-02-16T08:39:26;100946.44;;;10.22;65.61
36234;BME280;43467;50.890;5.982;2023-02-16T08:41:53;100947.22;;;10.24;65.74
36234;BME280;43467;50.890;5.982;2023-02-16T08:44:20;100958.69;;;10.25;65.93
36234;BME280;43467;50.890;5.982;2023-02-16T08:46:47;100958.56;;;10.28;65.82
36234;BME280;43467;50.890;5.982;2023-02-16T08:49:14;100954.38;;;10.22;66.29
36234;BME280;43467;50.890;5.982;2023-02-16T08:51:42;100959.13;;;10.39;66.09
36234;BME280;43467;50.890;5.982;2023-02-16T08:54:14;100959.72;;;10.47;65.85
36234;BME280;43467;50.890;5.982;2023-02-16T08:56:39;100961.25;;;10.54;65.67
36234;BME280;43467;50.890;5.982;2023-02-16T08:59:09;100955.09;;;10.52;65.83
36234;BME280;43467;50.890;5.982;2023-02-16T09:01:35;100969.94;;;10.58;65.88
36234;BME280;43467;50.890;5.982;2023-02-16T09:04:00;100974.97;;;10.65;65.62
36234;BME280;43467;50.890;5.982;2023-02-16T09:06:25;100977.63;;;10.65;65.45
36234;BME280;43467;50.890;5.982;2023-02-16T09:08:53;100983.97;;;10.60;65.46
36234;BME280;43467;50.890;5.982;2023-02-16T09:11:20;100984.97;;;10.57;65.35
36234;BME280;43467;50.890;5.982;2023-02-16T09:13:46;100978.78;;;10.57;65.13
36234;BME280;43467;50.890;5.982;2023-02-16T09:16:17;100970.47;;;10.43;64.99
36234;BME280;43467;50.890;5.982;2023-02-16T09:18:44;100992.50;;;10.43;64.88
36234;BME280;43467;50.890;5.982;2023-02-16T09:21:15;100998.50;;;10.48;64.96
36234;BME280;43467;50.890;5.982;2023-02-16T09:23:44;101002.50;;;10.60;64.65
36234;BME280;43467;50.890;5.982;2023-02-16T09:26:16;101007.13;;;10.55;64.74
36234;BME280;43467;50.890;5.982;2023-02-16T09:28:42;101001.56;;;10.62;64.28
36234;BME280;43467;50.890;5.982;2023-02-16T09:31:13;101005.22;;;10.58;64.46
36234;BME280;43467;50.890;5.982;2023-02-16T09:33:43;101010.94;;;10.46;64.81
36234;BME280;43467;50.890;5.982;2023-02-16T09:36:10;101011.69;;;10.50;64.86
36234;BME280;43467;50.890;5.982;2023-02-16T09:38:37;101011.72;;;10.48;64.84
36234;BME280;43467;50.890;5.982;2023-02-16T09:47:09;101012.31;;;10.58;64.38
36234;BME280;43467;50.890;5.982;2023-02-16T09:49:40;101026.41;;;10.58;64.45
36234;BME280;43467;50.890;5.982;2023-02-16T09:52:23;101028.56;;;10.47;64.64
36234;BME280;43467;50.890;5.982;2023-02-16T09:54:54;101028.69;;;10.43;64.97
36234;BME280;43467;50.890;5.982;2023-02-16T10:00:34;101036.97;;;10.32;64.98
36234;BME280;43467;50.890;5.982;2023-02-16T10:08:54;101049.16;;;10.38;64.77
36234;BME280;43467;50.890;5.982;2023-02-16T10:11:35;101049.47;;;10.27;65.05
36234;BME280;43467;50.890;5.982;2023-02-16T10:14:36;101053.06;;;10.26;65.06
36234;BME280;43467;50.890;5.982;2023-02-16T10:17:22;101047.63;;;10.31;64.73
36234;BME280;43467;50.890;5.982;2023-02-16T10:20:02;101050.13;;;10.35;64.90
36234;BME280;43467;50.890;5.982;2023-02-16T10:22:34;101045.63;;;10.37;64.65
36234;BME280;43467;50.890;5.982;2023-02-16T10:28:06;101035.41;;;10.27;65.02
36234;BME280;43467;50.890;5.982;2023-02-16T10:30:38;101034.56;;;10.24;65.43
36234;BME280;43467;50.890;5.982;2023-02-16T10:36:14;101021.22;;;10.27;65.41
36234;BME280;43467;50.890;5.982;2023-02-16T10:39:33;101028.31;;;10.27;65.39
36234;BME280;43467;50.890;5.982;2023-02-16T10:41:36;101020.28;;;10.30;65.38
36234;BME280;43467;50.890;5.982;2023-02-16T10:44:24;101018.41;;;10.34;65.33
36234;BME280;43467;50.890;5.982;2023-02-16T10:46:59;101016.53;;;10.37;65.61
36234;BME280;43467;50.890;5.982;2023-02-16T10:49:28;101013.59;;;10.46;65.58
36234;BME280;43467;50.890;5.982;2023-02-16T10:51:55;101014.22;;;10.53;65.43
36234;BME280;43467;50.890;5.982;2023-02-16T10:54:26;101021.16;;;10.57;65.42
36234;BME280;43467;50.890;5.982;2023-02-16T10:57:05;101017.75;;;10.53;65.86
36234;BME280;43467;50.890;5.982;2023-02-16T10:59:40;101024.72;;;10.56;66.26
36234;BME280;43467;50.890;5.982;2023-02-16T11:02:29;101022.63;;;10.65;66.24
36234;BME280;43467;50.890;5.982;2023-02-16T11:04:59;100999.44;;;10.47;66.13
36234;BME280;43467;50.890;5.982;2023-02-16T11:07:27;101011.28;;;10.62;65.86
36234;BME280;43467;50.890;5.982;2023-02-16T11:09:55;101012.69;;;10.72;65.42
36234;BME280;43467;50.890;5.982;2023-02-16T11:14:53;101015.19;;;10.77;65.32
36234;BME280;43467;50.890;5.982;2023-02-16T11:17:21;101002.03;;;10.75;65.58
36234;BME280;43467;50.890;5.982;2023-02-16T11:20:00;101015.00;;;10.83;65.72
36234;BME280;43467;50.890;5.982;2023-02-16T11:22:27;101007.34;;;10.73;65.97
36234;BME280;43467;50.890;5.982;2023-02-16T11:24:53;100993.41;;;10.68;66.07
36234;BME280;43467;50.890;5.982;2023-02-16T11:27:23;100999.53;;;10.70;66.47
36234;BME280;43467;50.890;5.982;2023-02-16T11:29:50;101003.06;;;10.69;66.83
36234;BME280;43467;50.890;5.982;2023-02-16T11:32:35;100991.94;;;10.85;66.53
36234;BME280;43467;50.890;5.982;2023-02-16T11:35:00;101008.69;;;10.87;66.38
36234;BME280;43467;50.890;5.982;2023-02-16T11:37:27;100997.97;;;10.90;66.44
36234;BME280;43467;50.890;5.982;2023-02-16T11:40:00;101003.41;;;10.85;66.63
36234;BME280;43467;50.890;5.982;2023-02-16T11:42:32;101000.88;;;10.82;66.89
36234;BME280;43467;50.890;5.982;2023-02-16T11:45:00;100983.50;;;10.73;67.50
36234;BME280;43467;50.890;5.982;2023-02-16T11:47:35;100984.28;;;10.77;67.54
36234;BME280;43467;50.890;5.982;2023-02-16T11:50:21;100991.25;;;10.80;67.76
36234;BME280;43467;50.890;5.982;2023-02-16T11:52:50;100989.03;;;10.92;67.80
36234;BME280;43467;50.890;5.982;2023-02-16T11:57:51;100977.84;;;10.84;68.42
36234;BME280;43467;50.890;5.982;2023-02-16T12:00:20;100969.06;;;10.84;68.61
36234;BME280;43467;50.890;5.982;2023-02-16T12:06:05;100964.59;;;10.84;70.28
36234;BME280;43467;50.890;5.982;2023-02-16T12:11:37;100970.66;;;10.88;71.20
36234;BME280;43467;50.890;5.982;2023-02-16T12:17:25;100966.44;;;11.07;71.15
36234;BME280;43467;50.890;5.982;2023-02-16T12:19:55;100957.13;;;11.20;71.21
36234;BME280;43467;50.890;5.982;2023-02-16T12:22:31;100963.88;;;11.29;71.15
36234;BME280;43467;50.890;5.982;2023-02-16T12:27:58;100965.66;;;11.28;71.40
36234;BME280;43467;50.890;5.982;2023-02-16T12:33:07;100953.66;;;11.41;70.74
36234;BME280;43467;50.890;5.982;2023-02-16T12:35:49;100949.34;;;11.39;70.28
36234;BME280;43467;50.890;5.982;2023-02-16T12:43:37;100943.16;;;11.38;69.99
36234;BME280;43467;50.890;5.982;2023-02-16T12:46:13;100936.72;;;11.45;69.64
36234;BME280;43467;50.890;5.982;2023-02-16T12:49:00;100924.63;;;11.38;69.64
36234;BME280;43467;50.890;5.982;2023-02-16T12:51:37;100924.88;;;11.32;69.79
36234;BME280;43467;50.890;5.982;2023-02-16T12:54:31;100918.84;;;11.50;69.29
36234;BME280;43467;50.890;5.982;2023-02-16T12:56:59;100914.59;;;11.46;69.09
36234;BME280;43467;50.890;5.982;2023-02-16T12:59:37;100914.41;;;11.51;69.49
36234;BME280;43467;50.890;5.982;2023-02-16T13:02:11;100914.34;;;11.52;69.42
36234;BME280;43467;50.890;5.982;2023-02-16T13:05:02;100907.16;;;11.56;69.07
36234;BME280;43467;50.890;5.982;2023-02-16T13:07:44;100902.13;;;11.72;68.64
36234;BME280;43467;50.890;5.982;2023-02-16T13:10:22;100891.53;;;11.72;68.74
36234;BME280;43467;50.890;5.982;2023-02-16T13:12:59;100896.69;;;11.75;68.39
36234;BME280;43467;50.890;5.982;2023-02-16T13:15:47;100895.34;;;11.86;67.86
36234;BME280;43467;50.890;5.982;2023-02-16T13:18:21;100892.41;;;11.94;68.04
36234;BME280;43467;50.890;5.982;2023-02-16T13:21:13;100888.31;;;11.85;67.89
36234;BME280;43467;50.890;5.982;2023-02-16T13:42:57;100858.91;;;12.11;65.49
36234;BME280;43467;50.890;5.982;2023-02-16T13:45:29;100850.03;;;12.13;65.58
36234;BME280;43467;50.890;5.982;2023-02-16T13:47:56;100857.50;;;12.23;65.52
36234;BME280;43467;50.890;5.982;2023-02-16T13:50:28;100851.81;;;12.32;64.91
36234;BME280;43467;50.890;5.982;2023-02-16T13:53:07;100821.28;;;12.42;64.50
36234;BME280;43467;50.890;5.982;2023-02-16T13:55:36;100844.84;;;12.70;63.85
36234;BME280;43467;50.890;5.982;2023-02-16T14:03:04;100847.31;;;12.54;63.02
36234;BME280;43467;50.890;5.982;2023-02-16T14:05:36;100842.88;;;12.55;62.88
36234;BME280;43467;50.890;5.982;2023-02-16T14:08:29;100832.50;;;12.49;63.01
36234;BME280;43467;50.890;5.982;2023-02-16T14:10:57;100831.09;;;12.61;62.43
36234;BME280;43467;50.890;5.982;2023-02-16T14:18:41;100814.44;;;12.57;61.58
36234;BME280;43467;50.890;5.982;2023-02-16T14:23:55;100814.16;;;12.63;61.09
36234;BME280;43467;50.890;5.982;2023-02-16T14:26:22;100804.69;;;12.76;60.75
36234;BME280;43467;50.890;5.982;2023-02-16T14:31:26;100801.41;;;13.09;59.42
36234;BME280;43467;50.890;5.982;2023-02-16T14:34:28;100804.69;;;13.15;59.15
36234;BME280;43467;50.890;5.982;2023-02-16T14:39:42;100801.72;;;13.21;58.61
36234;BME280;43467;50.890;5.982;2023-02-16T14:42:17;100798.13;;;13.22;58.48
36234;BME280;43467;50.890;5.982;2023-02-16T14:45:00;100796.28;;;13.24;58.28
36234;BME280;43467;50.890;5.982;2023-02-16T14:47:51;100788.38;;;13.23;58.47
36234;BME280;43467;50.890;5.982;2023-02-16T15:01:40;100786.16;;;13.32;58.21
36234;BME280;43467;50.890;5.982;2023-02-16T15:04:08;100788.81;;;13.32;58.25
36234;BME280;43467;50.890;5.982;2023-02-16T15:06:37;100780.03;;;13.30;58.34
36234;BME280;43467;50.890;5.982;2023-02-16T15:09:18;100789.09;;;13.26;58.07
36234;BME280;43467;50.890;5.982;2023-02-16T15:11:53;100785.72;;;13.23;58.43
36234;BME280;43467;50.890;5.982;2023-02-16T15:14:47;100775.72;;;13.28;58.58
36234;BME280;43467;50.890;5.982;2023-02-16T15:17:39;100776.72;;;13.25;58.45
36234;BME280;43467;50.890;5.982;2023-02-16T15:20:49;100784.06;;;13.20;58.92
36234;BME280;43467;50.890;5.982;2023-02-16T15:23:20;100782.78;;;13.10;59.22